Time;durP1;ratioP1;P1;durP2;ratioP2;P2;SDS_P1;SDS_P2;PMS_P1;PMS_P2;Temp;Humidity;BMP_temperature;BMP_pressure;BME280_temperature;BME280_humidity;BME280_pressure;Samples;Min_cycle;Max_cycle;Signal;HPM_P1;HPM_P2
2023/01/03 00:01:38;;;;;;;25.92;11.65;;;13.20;99.90;;;;;;5045588;28;20040;-74
2023/01/03 00:04:08;;;;;;;25.33;12.48;;;13.20;99.90;;;;;;5059850;28;20024;-74
2023/01/03 00:06:37;;;;;;;26.52;11.82;;;13.10;99.90;;;;;;5064433;28;20384;-73
2023/01/03 00:09:07;;;;;;;26.10;10.48;;;13.20;99.90;;;;;;5064252;28;20051;-74
2023/01/03 00:14:24;;;;;;;24.08;11.02;;;13.10;99.90;;;;;;5080898;28;20110;-73
2023/01/03 00:16:55;;;;;;;21.35;10.30;;;13.10;99.90;;;;;;5094121;28;20102;-74
2023/01/03 00:19:22;;;;;;;26.20;9.98;;;13.00;99.90;;;;;;5085359;28;20164;-74
2023/01/03 00:21:48;;;;;;;20.20;8.80;;;13.00;99.90;;;;;;5080593;28;20056;-73
2023/01/03 00:24:15;;;;;;;20.00;9.15;;;13.10;99.90;;;;;;5078179;28;20397;-73
2023/01/03 00:26:41;;;;;;;24.00;8.85;;;13.10;99.90;;;;;;5081974;28;20034;-73
2023/01/03 00:29:08;;;;;;;22.45;9.43;;;13.00;99.90;;;;;;5087834;28;20044;-73
2023/01/03 00:31:36;;;;;;;16.92;7.93;;;13.10;99.90;;;;;;5081924;28;20980;-74
2023/01/03 00:34:02;;;;;;;20.15;8.60;;;13.10;99.90;;;;;;5078361;28;20025;-75
2023/01/03 00:36:28;;;;;;;18.45;8.15;;;13.10;99.90;;;;;;5067308;28;20504;-74
2023/01/03 00:38:54;;;;;;;17.98;8.10;;;13.10;99.90;;;;;;5063451;28;20058;-74
2023/01/03 00:41:20;;;;;;;20.20;8.55;;;13.00;99.90;;;;;;5095992;27;20515;-74
2023/01/03 00:43:47;;;;;;;19.98;7.50;;;13.00;99.90;;;;;;5048128;28;20555;-74
2023/01/03 00:46:15;;;;;;;16.75;7.78;;;12.90;99.90;;;;;;5070441;28;20103;-73
2023/01/03 00:48:41;;;;;;;18.52;8.27;;;12.90;99.90;;;;;;5080520;28;20063;-75
2023/01/03 00:51:13;;;;;;;17.80;8.05;;;13.00;99.90;;;;;;5061109;28;20096;-74
2023/01/03 00:53:40;;;;;;;22.40;8.77;;;13.00;99.90;;;;;;5056451;28;20443;-73
2023/01/03 00:56:11;;;;;;;18.40;8.75;;;12.90;99.90;;;;;;5038677;28;20051;-73
2023/01/03 00:58:38;;;;;;;20.13;8.32;;;12.90;99.90;;;;;;5076569;28;20040;-73
2023/01/03 01:01:09;;;;;;;20.42;7.70;;;13.00;99.90;;;;;;5061679;28;20045;-73
2023/01/03 01:03:36;;;;;;;18.00;8.18;;;13.00;99.90;;;;;;5061220;28;20039;-73
2023/01/03 01:06:21;;;;;;;18.48;7.75;;;13.00;99.90;;;;;;5089668;28;20028;-72
2023/01/03 01:08:48;;;;;;;19.13;8.00;;;13.00;99.90;;;;;;5079327;28;20448;-74
2023/01/03 01:11:15;;;;;;;16.63;8.25;;;13.00;99.90;;;;;;5077851;28;20501;-73
2023/01/03 01:13:44;;;;;;;20.08;8.20;;;13.10;99.90;;;;;;5091142;28;20147;-73
2023/01/03 01:16:15;;;;;;;19.35;7.63;;;13.00;99.90;;;;;;5077876;28;20036;-73
2023/01/03 01:18:44;;;;;;;23.10;7.00;;;13.00;99.90;;;;;;5079474;28;20028;-74
2023/01/03 01:21:13;;;;;;;18.35;6.88;;;13.00;99.90;;;;;;5075361;28;20093;-72
2023/01/03 01:23:40;;;;;;;18.02;7.50;;;13.00;99.90;;;;;;5086605;28;20040;-74
2023/01/03 01:26:09;;;;;;;17.10;6.35;;;13.00;99.90;;;;;;5082415;28;20377;-74
2023/01/03 01:28:35;;;;;;;14.95;6.55;;;13.00;99.90;;;;;;5076742;28;20055;-72
2023/01/03 01:31:02;;;;;;;15.00;6.35;;;13.10;99.90;;;;;;5082521;28;20040;-74
2023/01/03 01:33:31;;;;;;;13.65;5.40;;;13.10;99.90;;;;;;5073105;28;20173;-73
2023/01/03 01:35:58;;;;;;;17.70;6.50;;;13.20;99.90;;;;;;5063534;28;20063;-73
2023/01/03 01:38:24;;;;;;;16.17;6.00;;;13.30;99.90;;;;;;5084468;28;20037;-73
2023/01/03 01:40:50;;;;;;;16.48;6.35;;;13.30;99.90;;;;;;5077259;28;20036;-73
2023/01/03 01:46:26;;;;;;;13.57;6.45;;;13.20;99.90;;;;;;5082209;28;20044;-74
2023/01/03 01:49:04;;;;;;;15.38;6.47;;;13.20;99.90;;;;;;5075363;28;20048;-73
2023/01/03 01:51:34;;;;;;;16.65;6.50;;;13.30;99.90;;;;;;5041126;28;20123;-73
2023/01/03 01:54:03;;;;;;;19.45;6.78;;;13.30;99.90;;;;;;5070485;28;20033;-73
2023/01/03 01:56:43;;;;;;;14.60;6.00;;;13.20;99.90;;;;;;5078995;28;20086;-73
2023/01/03 01:59:11;;;;;;;15.57;6.38;;;13.20;99.90;;;;;;5078773;28;20036;-73
2023/01/03 02:01:39;;;;;;;18.30;6.68;;;13.20;99.90;;;;;;5056090;28;20067;-73
2023/01/03 02:04:25;;;;;;;16.98;6.70;;;13.20;99.90;;;;;;5077369;28;20048;-73
2023/01/03 02:06:54;;;;;;;14.25;6.32;;;13.20;99.90;;;;;;5061428;28;20033;-74
2023/01/03 02:09:20;;;;;;;17.13;6.45;;;13.10;99.90;;;;;;5060260;28;20044;-73
2023/01/03 02:15:17;;;;;;;16.23;6.45;;;13.10;99.90;;;;;;5081492;28;20119;-73
2023/01/03 02:17:49;;;;;;;14.70;6.45;;;13.10;99.90;;;;;;5060394;28;20024;-73
2023/01/03 02:20:15;;;;;;;14.63;5.45;;;13.10;99.90;;;;;;5094933;28;20033;-74
2023/01/03 02:22:56;;;;;;;16.95;5.65;;;13.20;99.90;;;;;;5092368;28;20581;-73
2023/01/03 02:25:25;;;;;;;15.90;5.93;;;13.20;99.90;;;;;;5080989;28;20411;-74
2023/01/03 02:28:10;;;;;;;12.30;5.45;;;13.20;99.90;;;;;;5083892;28;20135;-75
2023/01/03 02:31:07;;;;;;;17.05;5.72;;;13.30;99.90;;;;;;5081255;28;20040;-73
2023/01/03 02:33:54;;;;;;;12.85;5.05;;;13.30;99.90;;;;;;5070765;28;20044;-72
2023/01/03 02:36:26;;;;;;;12.73;5.10;;;13.40;99.90;;;;;;5066715;28;20036;-73
2023/01/03 02:39:10;;;;;;;11.75;5.07;;;13.50;99.90;;;;;;5074537;28;20028;-73
2023/01/03 02:42:56;;;;;;;11.13;4.75;;;13.50;99.90;;;;;;5092754;28;20033;-73
2023/01/03 02:44:57;;;;;;;13.45;5.63;;;13.50;99.90;;;;;;5072411;28;20125;-73
2023/01/03 02:47:25;;;;;;;13.80;5.38;;;13.50;99.90;;;;;;5071217;28;20043;-73
2023/01/03 02:49:52;;;;;;;15.40;5.63;;;13.50;99.90;;;;;;5092019;28;20041;-73
2023/01/03 02:52:26;;;;;;;17.27;5.93;;;13.40;99.90;;;;;;5066955;28;20115;-73
2023/01/03 02:55:05;;;;;;;12.80;5.30;;;13.40;99.90;;;;;;5069813;28;20052;-73
2023/01/03 02:57:40;;;;;;;15.18;6.05;;;13.40;99.90;;;;;;5048751;28;20033;-72
2023/01/03 03:00:10;;;;;;;12.43;4.95;;;13.30;99.90;;;;;;5062994;28;20044;-74
2023/01/03 03:02:40;;;;;;;14.32;5.13;;;13.30;99.90;;;;;;5041195;28;20101;-73
2023/01/03 03:05:14;;;;;;;12.35;4.75;;;13.40;99.90;;;;;;5042850;28;20039;-73
2023/01/03 03:07:40;;;;;;;16.02;4.93;;;13.30;99.90;;;;;;5075825;28;20036;-73
2023/01/03 03:13:12;;;;;;;15.88;5.60;;;13.40;99.90;;;;;;5053062;28;20732;-73
2023/01/03 03:16:18;;;;;;;15.48;5.20;;;13.40;99.90;;;;;;5067560;28;20114;-72
2023/01/03 03:18:59;;;;;;;12.15;4.25;;;13.40;99.90;;;;;;5070707;28;20039;-73
2023/01/03 03:30:02;;;;;;;14.13;4.63;;;13.40;99.90;;;;;;5079409;28;20275;-73
2023/01/03 03:32:32;;;;;;;11.55;4.18;;;13.50;99.90;;;;;;5079379;28;20550;-73
2023/01/03 03:35:02;;;;;;;10.63;3.83;;;13.50;99.90;;;;;;5081167;28;20040;-73
2023/01/03 03:37:30;;;;;;;9.68;3.90;;;13.50;99.90;;;;;;5078678;28;20102;-73
2023/01/03 03:45:53;;;;;;;7.65;3.13;;;13.70;99.90;;;;;;5069337;28;20503;-73
2023/01/03 03:48:28;;;;;;;7.97;2.58;;;13.70;99.90;;;;;;5080403;28;20036;-72
2023/01/03 03:51:07;;;;;;;6.28;2.47;;;13.80;99.90;;;;;;5071750;28;20096;-72
2023/01/03 03:53:36;;;;;;;8.40;2.42;;;13.80;99.90;;;;;;5069510;28;20037;-72
2023/01/03 03:56:15;;;;;;;7.95;2.70;;;13.90;99.90;;;;;;5076675;28;20036;-73
2023/01/03 03:58:44;;;;;;;7.20;2.55;;;13.90;99.90;;;;;;5064049;28;20039;-72
2023/01/03 04:01:15;;;;;;;7.65;2.80;;;13.90;99.90;;;;;;5074800;28;20524;-74
2023/01/03 04:03:46;;;;;;;6.07;3.40;;;13.70;99.90;;;;;;5082122;28;20040;-73
2023/01/03 04:06:25;;;;;;;9.68;2.88;;;13.50;99.90;;;;;;5048892;28;20032;-73
2023/01/03 04:08:51;;;;;;;9.90;2.97;;;13.20;99.90;;;;;;5079200;28;20127;-73
2023/01/03 04:11:18;;;;;;;9.65;3.47;;;13.10;99.90;;;;;;5052058;28;20123;-74
2023/01/03 04:13:44;;;;;;;8.80;3.40;;;13.00;99.90;;;;;;5092838;28;20033;-74
2023/01/03 04:16:10;;;;;;;6.68;2.92;;;12.90;99.90;;;;;;5078122;28;20032;-73
2023/01/03 04:18:36;;;;;;;8.18;2.85;;;12.90;99.90;;;;;;5060419;28;20101;-73
2023/01/03 04:21:02;;;;;;;10.88;3.10;;;12.90;99.90;;;;;;5080646;28;20093;-73
2023/01/03 04:23:28;;;;;;;8.32;2.45;;;12.90;99.90;;;;;;5077692;28;20032;-73
2023/01/03 04:25:54;;;;;;;6.35;2.33;;;12.90;99.90;;;;;;5073883;28;20029;-75
2023/01/03 04:28:20;;;;;;;8.13;2.55;;;12.90;99.90;;;;;;5064971;27;20037;-73
2023/01/03 04:30:46;;;;;;;7.55;2.80;;;12.90;99.90;;;;;;5098313;28;20032;-72
2023/01/03 04:33:13;;;;;;;6.93;2.58;;;13.00;99.90;;;;;;5067183;28;20736;-72
2023/01/03 04:35:40;;;;;;;6.40;2.00;;;13.00;99.90;;;;;;5080425;28;20032;-72
2023/01/03 04:38:06;;;;;;;8.48;2.30;;;13.00;99.90;;;;;;5079099;28;20044;-73
2023/01/03 04:40:34;;;;;;;7.28;2.28;;;13.00;99.90;;;;;;5076885;28;20089;-73
2023/01/03 04:45:47;;;;;;;5.32;2.17;;;13.10;99.90;;;;;;5073769;28;20086;-73
2023/01/03 04:48:13;;;;;;;7.75;2.30;;;13.10;99.90;;;;;;5076924;28;20092;-74
2023/01/03 04:50:39;;;;;;;8.25;2.22;;;13.00;99.90;;;;;;5077611;28;20036;-73
2023/01/03 04:53:05;;;;;;;7.55;2.42;;;13.00;99.90;;;;;;5089973;28;20434;-72
2023/01/03 04:55:31;;;;;;;8.52;2.95;;;13.00;99.90;;;;;;5057104;28;20032;-73
2023/01/03 04:57:57;;;;;;;8.52;2.90;;;13.00;99.90;;;;;;5076800;28;20089;-73
2023/01/03 05:00:24;;;;;;;8.68;2.40;;;13.00;99.90;;;;;;5084046;28;20074;-73
2023/01/03 05:02:49;;;;;;;;;;;13.00;99.90;;;;;;5087629;28;20047;-73
2023/01/03 05:05:15;;;;;;;6.05;2.38;;;13.10;99.90;;;;;;5076812;28;19912;-73
2023/01/03 05:07:41;;;;;;;8.73;2.33;;;13.20;99.90;;;;;;5073549;28;20144;-74
2023/01/03 05:10:07;;;;;;;8.18;2.85;;;13.30;99.90;;;;;;5080431;28;20036;-74
2023/01/03 05:12:33;;;;;;;9.02;2.70;;;13.30;99.90;;;;;;5080758;28;20063;-73
2023/01/03 05:15:00;;;;;;;8.55;2.70;;;13.30;99.90;;;;;;5087071;28;20043;-73
2023/01/03 05:17:26;;;;;;;;;;;13.30;99.90;;;;;;5077211;28;20051;-73
2023/01/03 05:28:08;;;;;;;8.50;2.67;;;13.50;99.90;;;;;;5071236;28;20047;-72
2023/01/03 05:30:35;;;;;;;49.65;24.98;;;13.40;99.90;;;;;;5078791;28;20040;-74
2023/01/03 05:33:01;;;;;;;13.00;4.03;;;13.10;99.90;;;;;;5056792;28;20120;-73
2023/01/03 05:35:27;;;;;;;6.57;2.90;;;12.90;99.90;;;;;;5050101;28;20273;-73
2023/01/03 05:37:53;;;;;;;8.15;3.20;;;12.70;99.90;;;;;;5072765;28;20033;-73
2023/01/03 05:40:19;;;;;;;10.00;3.42;;;12.60;99.90;;;;;;5090452;28;20025;-76
2023/01/03 05:42:45;;;;;;;9.38;4.00;;;12.50;99.90;;;;;;5082368;28;20031;-76
2023/01/03 05:45:12;;;;;;;11.55;3.90;;;12.30;99.90;;;;;;5074149;28;20119;-75
2023/01/03 05:47:37;;;;;;;10.27;3.90;;;12.30;99.90;;;;;;5075741;28;20033;-76
2023/01/03 05:50:04;;;;;;;12.90;3.40;;;12.30;99.90;;;;;;5052129;28;20052;-77
2023/01/03 05:52:30;;;;;;;10.27;3.83;;;12.30;99.90;;;;;;5078774;28;20037;-76
2023/01/03 05:54:56;;;;;;;11.98;4.15;;;12.20;99.90;;;;;;5079222;28;20089;-76
2023/01/03 05:57:21;;;;;;;9.23;3.72;;;12.30;99.90;;;;;;5081739;28;20044;-75
2023/01/03 05:59:47;;;;;;;10.95;4.00;;;12.20;99.90;;;;;;5067448;28;20040;-75
2023/01/03 06:02:13;;;;;;;12.32;3.53;;;12.20;99.90;;;;;;5057171;28;20052;-76
2023/01/03 06:04:39;;;;;;;11.77;3.22;;;12.30;99.90;;;;;;5060916;28;20893;-76
2023/01/03 06:07:05;;;;;;;7.75;3.13;;;12.30;99.90;;;;;;5059469;28;20040;-76
2023/01/03 06:09:31;;;;;;;9.93;2.90;;;12.30;99.90;;;;;;5062024;28;20033;-77
2023/01/03 06:11:58;;;;;;;9.02;3.20;;;12.40;99.90;;;;;;5059681;28;20033;-76
2023/01/03 06:14:24;;;;;;;9.60;3.00;;;12.40;99.90;;;;;;5059946;28;20037;-74
2023/01/03 06:19:34;;;;;;;9.63;3.40;;;12.50;99.90;;;;;;5074925;27;20085;-76
2023/01/03 06:22:00;;;;;;;12.68;3.75;;;12.60;99.90;;;;;;5079942;28;20562;-76
2023/01/03 06:24:25;;;;;;;9.27;3.92;;;12.60;99.90;;;;;;5090821;28;20031;-76
2023/01/03 06:26:51;;;;;;;10.13;3.50;;;12.70;99.90;;;;;;5084513;28;20096;-76
2023/01/03 06:29:17;;;;;;;10.73;3.78;;;12.70;99.90;;;;;;5077963;28;20043;-76
2023/01/03 06:31:43;;;;;;;8.98;3.70;;;12.70;99.90;;;;;;5050409;28;20088;-76
2023/01/03 06:34:09;;;;;;;9.27;3.90;;;12.70;99.90;;;;;;5050145;28;20063;-76
2023/01/03 06:36:36;;;;;;;9.48;3.95;;;12.70;99.90;;;;;;5064858;28;20063;-76
2023/01/03 06:39:02;;;;;;;10.43;4.20;;;12.70;99.90;;;;;;5052542;28;20052;-75
2023/01/03 06:41:28;;;;;;;9.48;4.38;;;12.80;99.90;;;;;;5059863;28;20037;-75
2023/01/03 06:43:54;;;;;;;8.45;3.92;;;12.80;99.90;;;;;;5061900;28;20078;-76
2023/01/03 06:54:36;;;;;;;10.32;4.28;;;13.00;99.90;;;;;;5097665;27;20039;-76
2023/01/03 06:57:03;;;;;;;12.52;3.40;;;13.10;99.90;;;;;;5083401;28;20024;-77
2023/01/03 06:59:29;;;;;;;9.05;3.50;;;13.10;99.90;;;;;;5069523;28;20036;-78
2023/01/03 07:01:55;;;;;;;8.70;3.10;;;13.10;99.90;;;;;;5082472;28;20024;-76
2023/01/03 07:04:22;;;;;;;9.68;3.63;;;13.20;99.90;;;;;;5078259;28;20030;-76
2023/01/03 07:06:49;;;;;;;9.32;2.97;;;13.20;99.90;;;;;;5081717;28;20020;-75
2023/01/03 07:09:15;;;;;;;9.82;3.38;;;13.20;99.90;;;;;;5098512;28;20048;-76
2023/01/03 07:11:41;;;;;;;13.38;3.90;;;13.20;99.90;;;;;;5076394;28;20032;-76
2023/01/03 07:14:09;;;;;;;8.45;3.38;;;13.30;99.90;;;;;;5078824;28;20048;-76
2023/01/03 07:16:42;;;;;;;13.65;5.35;;;13.30;99.90;;;;;;5091849;27;20037;-73
2023/01/03 07:19:12;;;;;;;12.48;5.55;;;13.40;99.90;;;;;;5077504;28;20121;-73
2023/01/03 07:21:38;;;;;;;13.15;4.97;;;13.50;99.90;;;;;;5081831;28;20562;-74
2023/01/03 07:24:05;;;;;;;13.23;5.00;;;13.50;99.90;;;;;;5080240;28;20047;-74
2023/01/03 07:26:33;;;;;;;10.80;4.38;;;13.60;99.90;;;;;;5082158;28;20036;-74
2023/01/03 07:29:00;;;;;;;12.60;5.28;;;13.60;99.90;;;;;;5071389;28;20048;-73
2023/01/03 07:31:26;;;;;;;14.50;4.93;;;13.60;99.90;;;;;;5081877;28;20040;-73
2023/01/03 07:33:54;;;;;;;13.98;5.97;;;13.60;99.90;;;;;;5094989;28;20037;-73
2023/01/03 07:36:20;;;;;;;15.98;6.72;;;13.60;99.90;;;;;;5074118;28;20114;-73
2023/01/03 07:38:47;;;;;;;23.63;8.63;;;13.60;99.90;;;;;;5079881;28;20051;-73
2023/01/03 07:41:14;;;;;;;15.73;7.10;;;13.70;99.90;;;;;;5082353;28;20395;-73
2023/01/03 07:43:43;;;;;;;18.45;8.48;;;13.70;99.90;;;;;;5092966;27;20033;-73
2023/01/03 07:46:13;;;;;;;25.33;9.55;;;13.70;99.90;;;;;;5079071;28;20042;-74
2023/01/03 07:48:39;;;;;;;23.27;10.13;;;13.60;99.90;;;;;;5080342;28;21016;-73
2023/01/03 07:51:06;;;;;;;20.92;8.38;;;13.60;99.90;;;;;;5079368;28;20032;-73
2023/01/03 07:53:33;;;;;;;20.73;8.75;;;13.60;99.90;;;;;;5067678;28;20040;-73
2023/01/03 07:56:06;;;;;;;20.48;8.73;;;13.60;99.90;;;;;;5069699;28;20086;-73
2023/01/03 07:58:32;;;;;;;18.83;8.20;;;13.60;99.90;;;;;;5090874;28;20325;-73
2023/01/03 08:01:09;;;;;;;21.27;7.72;;;13.60;99.90;;;;;;5086961;28;20028;-73
2023/01/03 08:03:36;;;;;;;19.83;8.00;;;13.60;99.90;;;;;;5077356;28;20507;-74
2023/01/03 08:06:04;;;;;;;16.52;7.30;;;13.60;99.90;;;;;;5073643;28;20112;-74
2023/01/03 08:08:31;;;;;;;19.45;8.85;;;13.60;99.90;;;;;;5062249;27;20039;-74
2023/01/03 08:13:43;;;;;;;15.80;7.63;;;13.70;99.90;;;;;;5054939;28;19924;-73
2023/01/03 08:16:12;;;;;;;18.13;7.05;;;13.70;99.90;;;;;;5063295;28;20057;-73
2023/01/03 08:18:39;;;;;;;14.73;6.68;;;13.80;99.90;;;;;;5062587;28;20378;-73
2023/01/03 08:21:07;;;;;;;12.50;5.80;;;13.90;99.90;;;;;;5075490;28;20063;-74
2023/01/03 08:23:33;;;;;;;16.48;6.10;;;13.90;99.90;;;;;;5072010;28;20043;-74
2023/01/03 08:26:04;;;;;;;16.25;5.85;;;14.00;99.90;;;;;;5066628;28;20039;-74
2023/01/03 08:28:31;;;;;;;22.55;7.15;;;14.00;99.90;;;;;;5055156;28;20430;-74
2023/01/03 08:30:58;;;;;;;16.33;6.10;;;14.00;99.90;;;;;;5081010;28;20472;-73
2023/01/03 08:33:26;;;;;;;19.58;6.30;;;14.00;99.90;;;;;;5081628;28;20438;-73
2023/01/03 08:35:56;;;;;;;19.25;6.28;;;14.10;99.90;;;;;;5072082;28;20032;-74
2023/01/03 08:38:30;;;;;;;19.40;6.28;;;14.20;99.90;;;;;;5077798;28;20035;-74
2023/01/03 08:40:59;;;;;;;15.25;4.95;;;14.30;99.90;;;;;;5078498;28;20028;-74
2023/01/03 08:43:26;;;;;;;12.27;3.88;;;14.50;99.90;;;;;;5080230;28;20113;-73
2023/01/03 08:45:52;;;;;;;15.65;4.40;;;14.60;99.90;;;;;;5072061;28;20036;-74
2023/01/03 08:48:20;;;;;;;9.88;3.03;;;14.70;99.90;;;;;;5070801;28;20039;-74
2023/01/03 08:50:47;;;;;;;16.08;3.83;;;14.70;99.90;;;;;;5077412;28;20428;-74
2023/01/03 08:53:12;;;;;;;14.52;3.50;;;14.80;99.90;;;;;;5069950;28;20127;-74
2023/01/03 08:55:38;;;;;;;11.65;3.78;;;14.90;99.90;;;;;;5054210;28;20124;-74
2023/01/03 08:58:04;;;;;;;15.25;2.83;;;14.90;99.90;;;;;;5070851;28;20116;-73
2023/01/03 09:00:30;;;;;;;14.40;3.25;;;15.00;99.90;;;;;;5086163;28;20037;-74
2023/01/03 09:02:59;;;;;;;8.27;3.13;;;15.10;99.90;;;;;;5054884;28;20029;-74
2023/01/03 09:05:26;;;;;;;10.05;2.90;;;15.10;99.90;;;;;;5059781;28;20040;-74
2023/01/03 09:07:53;;;;;;;11.65;2.80;;;15.10;99.90;;;;;;5057656;28;20040;-74
2023/01/03 09:10:19;;;;;;;9.48;2.92;;;15.20;99.90;;;;;;5055404;28;20072;-74
2023/01/03 09:12:44;;;;;;;9.55;2.53;;;15.20;99.90;;;;;;5070415;28;20051;-74
2023/01/03 09:15:10;;;;;;;8.45;2.50;;;15.20;99.90;;;;;;5067099;28;20447;-73
2023/01/03 09:17:36;;;;;;;7.72;2.53;;;15.20;99.90;;;;;;5080921;28;20044;-74
2023/01/03 09:20:02;;;;;;;6.53;2.28;;;15.20;99.90;;;;;;5077703;28;20035;-74
2023/01/03 09:22:28;;;;;;;10.25;2.15;;;15.20;99.90;;;;;;5077728;28;20039;-73
2023/01/03 09:24:54;;;;;;;6.85;2.60;;;15.20;99.90;;;;;;5093587;28;20037;-73
2023/01/03 09:27:20;;;;;;;13.48;3.58;;;15.30;99.90;;;;;;5073127;28;20040;-75
2023/01/03 09:29:47;;;;;;;7.95;2.90;;;15.30;99.90;;;;;;5079747;28;20106;-74
2023/01/03 09:32:13;;;;;;;9.88;3.03;;;15.40;99.90;;;;;;5079314;28;20503;-75
2023/01/03 09:34:39;;;;;;;11.52;3.35;;;15.50;99.90;;;;;;5079057;28;20078;-74
2023/01/03 09:37:05;;;;;;;9.52;2.83;;;15.50;99.90;;;;;;5079195;28;20036;-74
2023/01/03 09:39:32;;;;;;;11.38;3.47;;;15.50;99.90;;;;;;5075549;28;20111;-74
2023/01/03 09:44:44;;;;;;;14.50;4.38;;;15.60;99.90;;;;;;5075832;28;20039;-73
2023/01/03 09:47:19;;;;;;;13.98;5.70;;;15.60;99.90;;;;;;5074758;28;20093;-73
2023/01/03 09:49:46;;;;;;;16.38;6.57;;;15.70;99.90;;;;;;5079378;28;20407;-73
2023/01/03 10:05:09;;;;;;;22.48;9.93;;;16.00;99.90;;;;;;5077193;28;20031;-75
2023/01/03 10:07:52;;;;;;;22.40;10.80;;;16.10;99.90;;;;;;5079004;28;20028;-73
2023/01/03 10:10:31;;;;;;;23.42;11.85;;;16.30;99.90;;;;;;5080138;28;20029;-73
2023/01/03 10:13:16;;;;;;;25.00;10.65;;;16.60;99.90;;;;;;5080793;28;20096;-73
2023/01/03 10:16:05;;;;;;;25.02;12.13;;;16.90;99.90;;;;;;5079813;28;20028;-75
2023/01/03 10:18:48;;;;;;;23.63;11.43;;;17.90;99.90;;;;;;5081342;28;20056;-73
2023/01/03 10:21:49;;;;;;;29.38;11.43;;;17.30;99.90;;;;;;5098001;28;20515;-74
2023/01/03 10:24:24;;;;;;;26.90;10.90;;;17.00;99.90;;;;;;5085035;28;20035;-73
2023/01/03 10:27:06;;;;;;;24.08;11.15;;;16.70;99.90;;;;;;5081638;27;20523;-75
2023/01/03 10:29:32;;;;;;;24.75;10.98;;;16.70;99.90;;;;;;5067678;28;20043;-73
2023/01/03 10:32:17;;;;;;;26.02;10.98;;;16.70;99.90;;;;;;5079934;28;20029;-73
2023/01/03 10:34:43;;;;;;;27.20;12.68;;;17.00;99.90;;;;;;5084284;28;20503;-73
2023/01/03 10:37:18;;;;;;;27.48;12.50;;;17.50;99.90;;;;;;5072563;28;20043;-74
2023/01/03 10:39:44;;;;;;;30.50;13.38;;;17.80;99.90;;;;;;5077788;28;20033;-74
2023/01/03 10:42:18;;;;;;;27.42;12.75;;;17.90;99.90;;;;;;5057340;28;20062;-73
2023/01/03 10:45:14;;;;;;;26.83;12.75;;;18.20;99.90;;;;;;5048049;28;20087;-73
2023/01/03 10:47:41;;;;;;;28.38;13.02;;;18.30;99.90;;;;;;5062658;28;20118;-73
2023/01/03 10:50:17;;;;;;;32.15;12.80;;;18.10;99.90;;;;;;5059823;28;20036;-73
2023/01/03 10:52:43;;;;;;;27.50;13.55;;;18.00;99.90;;;;;;5092138;28;20036;-74
2023/01/03 10:55:15;;;;;;;26.25;13.43;;;18.10;99.90;;;;;;5077199;28;20066;-74
2023/01/03 10:57:57;;;;;;;25.27;12.35;;;18.10;99.90;;;;;;5077434;28;20043;-74
2023/01/03 11:00:33;;;;;;;28.65;12.98;;;18.50;99.90;;;;;;5077159;28;20155;-74
2023/01/03 11:03:11;;;;;;;26.98;12.35;;;18.90;99.90;;;;;;5080244;28;20029;-74
2023/01/03 11:05:40;;;;;;;30.60;12.57;;;18.90;99.90;;;;;;5081269;28;20589;-74
2023/01/03 11:08:36;;;;;;;26.70;13.18;;;19.00;99.90;;;;;;5077686;28;20039;-74
2023/01/03 11:11:02;;;;;;;25.23;12.40;;;19.30;99.90;;;;;;5067209;28;20029;-74
2023/01/03 11:13:38;;;;;;;24.10;13.02;;;19.10;99.90;;;;;;5073829;28;20036;-74
2023/01/03 11:16:16;;;;;;;24.50;13.52;;;19.20;99.90;;;;;;5075066;28;20102;-74
2023/01/03 11:18:43;;;;;;;23.40;12.18;;;19.00;99.90;;;;;;5081236;28;20062;-73
2023/01/03 11:21:09;;;;;;;23.25;12.10;;;19.00;99.90;;;;;;5079848;28;20032;-73
2023/01/03 11:23:56;;;;;;;24.20;12.05;;;18.90;99.90;;;;;;5085867;28;20537;-73
2023/01/03 11:26:55;;;;;;;23.80;12.00;;;19.10;99.90;;;;;;5082279;28;20043;-75
2023/01/03 11:30:00;;;;;;;27.60;12.02;;;19.50;99.90;;;;;;5053118;28;20033;-74
2023/01/03 11:33:04;;;;;;;23.42;12.00;;;19.50;99.70;;;;;;5076399;28;20039;-75
2023/01/03 11:36:05;;;;;;;20.27;11.13;;;19.40;99.40;;;;;;5079198;28;20132;-74
2023/01/03 11:38:56;;;;;;;23.50;11.50;;;18.80;99.90;;;;;;5078402;28;20119;-74
2023/01/03 11:41:37;;;;;;;18.20;10.63;;;19.00;99.90;;;;;;5081967;27;20063;-73
2023/01/03 11:44:20;;;;;;;19.40;9.95;;;19.50;99.50;;;;;;5079683;28;20043;-74
2023/01/03 11:47:06;;;;;;;10.27;4.82;;;19.70;99.10;;;;;;5077072;28;20016;-73
2023/01/03 11:49:51;;;;;;;12.70;4.30;;;19.80;98.60;;;;;;5075929;28;20439;-74
2023/01/03 11:52:37;;;;;;;10.98;4.95;;;19.30;98.60;;;;;;5059245;28;20033;-74
2023/01/03 11:55:35;;;;;;;10.75;4.78;;;19.60;98.60;;;;;;5059125;28;20341;-73
2023/01/03 11:58:19;;;;;;;15.38;5.63;;;21.40;97.20;;;;;;5058463;28;20036;-74
2023/01/03 12:00:48;;;;;;;;;;;21.70;96.30;;;;;;5077311;28;20056;-74
2023/01/03 12:03:33;;;;;;;16.75;5.85;;;21.70;95.80;;;;;;5081765;28;19916;-74
2023/01/03 12:06:08;;;;;;;11.20;4.70;;;21.30;96.50;;;;;;5069057;28;20101;-74
2023/01/03 12:08:55;;;;;;;13.10;6.03;;;20.20;97.10;;;;;;5083100;28;20043;-74
2023/01/03 12:11:43;;;;;;;13.95;6.22;;;19.80;98.10;;;;;;5089924;28;20040;-74
2023/01/03 12:14:20;;;;;;;12.65;5.95;;;19.50;98.40;;;;;;5059193;28;20049;-74
2023/01/03 12:17:03;;;;;;;12.73;5.32;;;19.50;98.40;;;;;;5092996;28;20036;-73
2023/01/03 12:19:45;;;;;;;14.00;6.07;;;19.70;98.40;;;;;;5084891;28;20093;-75
2023/01/03 12:22:41;;;;;;;13.75;5.97;;;19.40;98.30;;;;;;5079134;28;20037;-73
2023/01/03 12:25:37;;;;;;;9.77;5.10;;;18.70;99.00;;;;;;5075452;28;20040;-74
2023/01/03 12:28:09;;;;;;;15.32;6.03;;;18.50;99.70;;;;;;5075582;28;20040;-74
2023/01/03 12:31:01;;;;;;;13.45;5.80;;;18.30;99.90;;;;;;5073532;28;20538;-74
2023/01/03 12:33:56;;;;;;;10.48;6.13;;;18.40;99.90;;;;;;5072393;28;20048;-73
2023/01/03 12:36:38;;;;;;;13.18;5.25;;;18.80;99.80;;;;;;5055436;28;20475;-73
2023/01/03 12:39:34;;;;;;;14.75;5.50;;;18.60;99.80;;;;;;5075546;28;20040;-74
2023/01/03 12:42:29;;;;;;;11.32;5.10;;;18.00;99.90;;;;;;5068888;28;20040;-74
2023/01/03 12:45:10;;;;;;;12.07;5.40;;;17.80;99.90;;;;;;5053675;28;20388;-73
2023/01/03 12:47:44;;;;;;;13.43;5.38;;;17.90;99.90;;;;;;5073516;28;20044;-74
2023/01/03 12:50:28;;;;;;;15.20;6.15;;;19.60;99.80;;;;;;5072972;28;20468;-73
2023/01/03 12:53:09;;;;;;;15.25;6.32;;;19.30;98.70;;;;;;5076747;28;20036;-74
2023/01/03 12:56:00;;;;;;;12.70;5.90;;;18.80;99.60;;;;;;5073344;28;20036;-75
2023/01/03 12:58:50;;;;;;;12.30;5.32;;;18.90;99.90;;;;;;5092943;28;20052;-73
2023/01/03 13:01:38;;;;;;;12.63;6.10;;;18.70;99.60;;;;;;5092337;28;20067;-75
2023/01/03 13:04:21;;;;;;;15.85;5.68;;;18.50;99.90;;;;;;5074939;28;20373;-74
2023/01/03 13:07:24;;;;;;;11.25;5.45;;;18.30;99.90;;;;;;5079456;28;20493;-75
2023/01/03 13:10:01;;;;;;;12.23;5.57;;;18.10;99.90;;;;;;5050083;28;20060;-73
2023/01/03 13:12:30;;;;;;;14.00;6.50;;;18.60;99.90;;;;;;5074601;28;20035;-75
2023/01/03 13:15:02;;;;;;;15.77;7.20;;;21.00;98.20;;;;;;5059116;28;20082;-74
2023/01/03 13:17:30;;;;;;;14.10;7.07;;;21.70;96.80;;;;;;5078695;28;20084;-73
2023/01/03 13:19:58;;;;;;;13.77;7.32;;;19.90;97.70;;;;;;5082027;28;21025;-76
2023/01/03 13:22:53;;;;;;;14.80;6.40;;;19.20;99.00;;;;;;5091390;28;20028;-75
2023/01/03 13:25:34;;;;;;;13.13;6.82;;;19.50;99.20;;;;;;5076388;28;20036;-74
2023/01/03 13:28:20;;;;;;;13.23;6.82;;;20.00;98.30;;;;;;5077904;28;20032;-73
2023/01/03 13:30:46;;;;;;;16.02;6.00;;;20.90;97.80;;;;;;5069361;28;20036;-72
2023/01/03 13:33:15;;;;;;;15.10;6.53;;;20.10;98.00;;;;;;5076534;28;20028;-73
2023/01/03 13:35:44;;;;;;;13.60;6.75;;;19.40;98.70;;;;;;5074760;28;20029;-74
2023/01/03 13:38:25;;;;;;;11.60;6.10;;;19.00;99.40;;;;;;5093628;28;20032;-74
2023/01/03 13:41:14;;;;;;;11.68;6.53;;;18.50;99.90;;;;;;5066378;28;20030;-74
2023/01/03 13:43:40;;;;;;;14.77;6.85;;;18.30;99.90;;;;;;5069094;28;20032;-75
2023/01/03 13:46:35;;;;;;;;;;;18.30;99.90;;;;;;5072010;28;20096;-74
2023/01/03 13:49:05;;;;;;;11.63;6.72;;;18.30;99.90;;;;;;5055547;28;19979;-74
2023/01/03 13:51:34;;;;;;;14.20;7.18;;;19.60;99.50;;;;;;5072554;28;20037;-74
2023/01/03 13:54:19;;;;;;;12.93;7.05;;;19.90;98.60;;;;;;5056934;28;20442;-74
2023/01/03 13:56:48;;;;;;;13.25;7.30;;;20.40;98.50;;;;;;5061975;28;20040;-73
2023/01/03 13:59:16;;;;;;;12.65;7.25;;;22.10;96.90;;;;;;5069525;28;20033;-73
2023/01/03 14:02:00;;;;;;;13.68;7.10;;;23.10;95.30;;;;;;5058144;28;20025;-75
2023/01/03 14:04:51;;;;;;;14.07;7.63;;;21.30;96.30;;;;;;5069240;28;20037;-74
2023/01/03 14:07:44;;;;;;;11.63;6.40;;;22.50;95.80;;;;;;5053505;28;20524;-74
2023/01/03 14:10:41;;;;;;;12.02;6.55;;;21.60;95.70;;;;;;5055121;28;20044;-74
2023/01/03 14:13:25;;;;;;;12.85;7.03;;;21.70;96.00;;;;;;5053547;28;20109;-74